Time;durP1;ratioP1;P1;durP2;ratioP2;P2;SDS_P1;SDS_P2;PMS_P1;PMS_P2;Temp;Humidity;BMP_temperature;BMP_pressure;BME280_temperature;BME280_humidity;BME280_pressure;Samples;Min_cycle;Max_cycle;Signal;HPM_P1;HPM_P2
2022/03/28 00:01:26;;;;;;;10.93;8.27;;;;;;;;;;5013406;28;20249;-78
2022/03/28 00:03:53;;;;;;;11.70;9.23;;;;;;;;;;5028929;28;20282;-78
2022/03/28 00:06:20;;;;;;;11.73;8.73;;;;;;;;;;5013994;28;20237;-78
2022/03/28 00:08:49;;;;;;;11.73;9.33;;;;;;;;;;5013805;28;20285;-78
2022/03/28 00:11:18;;;;;;;13.60;9.53;;;;;;;;;;5022445;28;20229;-77
2022/03/28 00:13:45;;;;;;;13.43;9.37;;;;;;;;;;5020893;28;20229;-77
2022/03/28 00:16:13;;;;;;;11.27;8.67;;;;;;;;;;5014981;28;20268;-77
2022/03/28 00:18:40;;;;;;;12.13;8.77;;;;;;;;;;5020769;28;20201;-77
2022/03/28 00:21:07;;;;;;;11.37;8.67;;;;;;;;;;5021860;28;20293;-79
2022/03/28 00:23:34;;;;;;;11.40;9.07;;;;;;;;;;5029128;28;20310;-77
2022/03/28 00:26:01;;;;;;;10.53;8.30;;;;;;;;;;5026055;28;20247;-77
2022/03/28 00:28:30;;;;;;;16.43;9.17;;;;;;;;;;5013457;28;20207;-77
2022/03/28 00:30:57;;;;;;;11.87;9.07;;;;;;;;;;5018632;28;20290;-80
2022/03/28 00:33:25;;;;;;;12.27;9.07;;;;;;;;;;5027742;28;20201;-77
2022/03/28 00:35:52;;;;;;;10.80;9.00;;;;;;;;;;5013236;28;20226;-80
2022/03/28 00:38:19;;;;;;;13.47;9.63;;;;;;;;;;5026653;28;20198;-77
2022/03/28 00:40:46;;;;;;;14.70;9.07;;;;;;;;;;5030894;28;20204;-77
2022/03/28 00:43:13;;;;;;;13.70;9.63;;;;;;;;;;5024316;28;20262;-77
2022/03/28 00:45:43;;;;;;;13.53;8.80;;;;;;;;;;5015848;28;20297;-78
2022/03/28 00:48:11;;;;;;;12.97;9.20;;;;;;;;;;5032048;28;20193;-77
2022/03/28 00:50:38;;;;;;;16.00;9.63;;;;;;;;;;5027756;28;20230;-77
2022/03/28 00:53:06;;;;;;;12.23;9.17;;;;;;;;;;5028835;28;20216;-78
2022/03/28 00:55:34;;;;;;;11.17;8.50;;;;;;;;;;5014709;28;20226;-77
2022/03/28 00:58:01;;;;;;;14.07;9.07;;;;;;;;;;5025742;28;20220;-77
2022/03/28 01:00:28;;;;;;;10.63;8.60;;;;;;;;;;5013211;28;20221;-77
2022/03/28 01:02:57;;;;;;;13.80;9.50;;;;;;;;;;5012406;28;20212;-77
2022/03/28 01:05:26;;;;;;;11.03;8.67;;;;;;;;;;5012312;28;20786;-77
2022/03/28 01:07:55;;;;;;;11.97;8.50;;;;;;;;;;5021750;28;20232;-77
2022/03/28 01:10:23;;;;;;;12.67;9.53;;;;;;;;;;5018513;28;20222;-77
2022/03/28 01:12:51;;;;;;;10.47;8.33;;;;;;;;;;5012737;28;20205;-77
2022/03/28 01:15:18;;;;;;;13.60;9.10;;;;;;;;;;5016677;28;20229;-77
2022/03/28 01:20:33;;;;;;;12.80;8.43;;;;;;;;;;5015638;28;20270;-77
2022/03/28 01:23:02;;;;;;;15.07;9.17;;;;;;;;;;5022500;28;20272;-77
2022/03/28 01:25:30;;;;;;;11.93;8.77;;;;;;;;;;5030018;28;20308;-77
2022/03/28 01:27:58;;;;;;;11.47;9.43;;;;;;;;;;5019284;28;20198;-77
2022/03/28 01:30:26;;;;;;;12.87;9.57;;;;;;;;;;5031945;28;20285;-77
2022/03/28 01:32:53;;;;;;;13.57;9.70;;;;;;;;;;5031384;28;20198;-77
2022/03/28 01:35:28;;;;;;;11.73;9.30;;;;;;;;;;5032228;28;20217;-77
2022/03/28 01:37:55;;;;;;;15.83;9.23;;;;;;;;;;5031406;28;20265;-77
2022/03/28 01:40:24;;;;;;;13.37;9.23;;;;;;;;;;5021332;28;20225;-77
2022/03/28 01:42:51;;;;;;;13.63;9.27;;;;;;;;;;5024684;28;20212;-77
2022/03/28 01:45:18;;;;;;;12.27;9.53;;;;;;;;;;5029872;28;20249;-77
2022/03/28 01:47:46;;;;;;;11.47;8.57;;;;;;;;;;5030128;28;20204;-77
2022/03/28 01:50:13;;;;;;;13.23;9.87;;;;;;;;;;5030274;28;20245;-77
2022/03/28 01:52:40;;;;;;;12.93;9.43;;;;;;;;;;5014576;28;20205;-77
2022/03/28 01:55:09;;;;;;;11.87;8.57;;;;;;;;;;5023120;28;20313;-77
2022/03/28 01:57:37;;;;;;;12.57;9.10;;;;;;;;;;5028121;28;20193;-77
2022/03/28 02:00:06;;;;;;;13.40;9.17;;;;;;;;;;5028260;28;20204;-77
2022/03/28 02:02:33;;;;;;;11.60;8.67;;;;;;;;;;5028531;28;20190;-77
2022/03/28 02:05:00;;;;;;;14.63;9.00;;;;;;;;;;5012209;28;20214;-77
2022/03/28 02:07:28;;;;;;;12.83;8.77;;;;;;;;;;5012469;28;20208;-77
2022/03/28 02:09:55;;;;;;;11.50;8.90;;;;;;;;;;5011759;28;20218;-77
2022/03/28 02:12:22;;;;;;;14.47;9.47;;;;;;;;;;5021397;28;20201;-77
2022/03/28 02:14:51;;;;;;;12.17;9.00;;;;;;;;;;5027406;28;20303;-76
2022/03/28 02:17:18;;;;;;;13.50;8.93;;;;;;;;;;5021121;28;20300;-77
2022/03/28 02:19:45;;;;;;;13.57;9.80;;;;;;;;;;5021050;28;20285;-77
2022/03/28 02:22:12;;;;;;;15.70;10.40;;;;;;;;;;5024422;28;20228;-77
2022/03/28 02:24:40;;;;;;;12.17;8.97;;;;;;;;;;5016875;28;20322;-77
2022/03/28 02:27:07;;;;;;;15.27;9.90;;;;;;;;;;5032151;28;20246;-77
2022/03/28 02:29:34;;;;;;;11.73;8.93;;;;;;;;;;5034360;28;20315;-77
2022/03/28 02:32:03;;;;;;;11.17;9.00;;;;;;;;;;5027682;28;20215;-78
2022/03/28 02:34:30;;;;;;;11.80;9.30;;;;;;;;;;5018632;28;20218;-78
2022/03/28 02:36:57;;;;;;;13.13;9.63;;;;;;;;;;5034616;28;20196;-78
2022/03/28 02:39:25;;;;;;;12.87;9.37;;;;;;;;;;5032182;28;20289;-78
2022/03/28 02:41:52;;;;;;;13.13;10.03;;;;;;;;;;5032941;28;20248;-78
2022/03/28 02:44:20;;;;;;;12.17;8.97;;;;;;;;;;5021047;28;20230;-77
2022/03/28 02:46:47;;;;;;;13.53;9.37;;;;;;;;;;5018604;28;20301;-78
2022/03/28 02:49:18;;;;;;;12.77;9.33;;;;;;;;;;5016343;28;20209;-78
2022/03/28 02:51:46;;;;;;;12.70;9.50;;;;;;;;;;5014392;28;20230;-77
2022/03/28 02:54:13;;;;;;;13.97;9.30;;;;;;;;;;5018242;28;20218;-78
2022/03/28 02:56:40;;;;;;;11.90;8.60;;;;;;;;;;5015859;28;20232;-79
2022/03/28 02:59:07;;;;;;;12.03;9.00;;;;;;;;;;5017395;28;20293;-79
2022/03/28 03:01:35;;;;;;;11.90;9.33;;;;;;;;;;5031258;28;20226;-79
2022/03/28 03:04:02;;;;;;;13.03;9.20;;;;;;;;;;5035013;28;20218;-78
2022/03/28 03:06:31;;;;;;;11.73;9.47;;;;;;;;;;5017150;28;20198;-79
2022/03/28 03:08:58;;;;;;;13.13;9.77;;;;;;;;;;5028093;28;20198;-79
2022/03/28 03:11:26;;;;;;;12.03;9.20;;;;;;;;;;5025858;28;20275;-79
2022/03/28 03:13:56;;;;;;;12.73;9.07;;;;;;;;;;5022757;28;20226;-79
2022/03/28 03:16:24;;;;;;;12.90;9.67;;;;;;;;;;5018012;28;20194;-79
2022/03/28 03:18:51;;;;;;;12.33;8.97;;;;;;;;;;5035155;28;20194;-79
2022/03/28 03:21:18;;;;;;;14.53;9.33;;;;;;;;;;5029182;28;20281;-78
2022/03/28 03:23:47;;;;;;;11.97;9.90;;;;;;;;;;5032604;28;20217;-79
2022/03/28 03:26:14;;;;;;;14.80;10.60;;;;;;;;;;5016352;28;20608;-78
2022/03/28 03:28:41;;;;;;;12.97;9.63;;;;;;;;;;5033589;28;20193;-78
2022/03/28 03:31:08;;;;;;;12.77;8.70;;;;;;;;;;5019640;28;20210;-79
2022/03/28 03:33:35;;;;;;;14.17;9.00;;;;;;;;;;5015151;28;20209;-79
2022/03/28 03:36:02;;;;;;;15.03;9.43;;;;;;;;;;5029613;28;20285;-79
2022/03/28 03:38:30;;;;;;;15.53;11.00;;;;;;;;;;5023042;28;20214;-79
2022/03/28 03:40:58;;;;;;;16.43;9.90;;;;;;;;;;5033735;28;20300;-79
2022/03/28 03:43:26;;;;;;;16.57;10.90;;;;;;;;;;5032498;28;20198;-79
2022/03/28 03:45:53;;;;;;;15.83;10.53;;;;;;;;;;5032389;28;20240;-79
2022/03/28 03:48:20;;;;;;;18.50;10.40;;;;;;;;;;5054744;22;20230;-79
2022/03/28 03:50:47;;;;;;;17.50;10.07;;;;;;;;;;5018694;28;20226;-79
2022/03/28 03:53:15;;;;;;;13.67;10.20;;;;;;;;;;5028038;28;20203;-79
2022/03/28 03:55:42;;;;;;;15.03;10.23;;;;;;;;;;5016603;28;20285;-80
2022/03/28 03:58:11;;;;;;;16.17;10.07;;;;;;;;;;5013029;28;20221;-80
2022/03/28 04:00:38;;;;;;;16.40;10.03;;;;;;;;;;4998659;28;20254;-79
2022/03/28 04:03:05;;;;;;;15.20;10.30;;;;;;;;;;5016409;28;20213;-79
2022/03/28 04:05:34;;;;;;;15.40;10.47;;;;;;;;;;5033960;28;20266;-78
2022/03/28 04:08:02;;;;;;;17.17;10.00;;;;;;;;;;5029366;28;20225;-79
2022/03/28 04:10:31;;;;;;;18.17;10.50;;;;;;;;;;5031103;28;20198;-79
2022/03/28 04:12:58;;;;;;;21.23;10.80;;;;;;;;;;5016821;28;20286;-79
2022/03/28 04:15:27;;;;;;;14.00;10.47;;;;;;;;;;5015972;28;20290;-78
2022/03/28 04:17:55;;;;;;;18.70;10.50;;;;;;;;;;5017132;28;20222;-79
2022/03/28 04:20:22;;;;;;;16.03;9.97;;;;;;;;;;5015873;28;20233;-79
2022/03/28 04:22:51;;;;;;;15.20;9.87;;;;;;;;;;5015672;28;20225;-80
2022/03/28 04:25:18;;;;;;;16.63;11.10;;;;;;;;;;5015680;28;20213;-79
2022/03/28 04:27:46;;;;;;;14.23;10.27;;;;;;;;;;5015725;28;20242;-79
2022/03/28 04:30:13;;;;;;;13.10;9.83;;;;;;;;;;5022603;28;20284;-79
2022/03/28 04:32:42;;;;;;;14.90;10.67;;;;;;;;;;5033971;28;20304;-80
2022/03/28 04:35:10;;;;;;;14.10;10.70;;;;;;;;;;5033095;28;20197;-79
2022/03/28 04:37:38;;;;;;;14.17;10.77;;;;;;;;;;5032990;28;20222;-79
2022/03/28 04:40:06;;;;;;;14.23;9.80;;;;;;;;;;5011713;28;20205;-79
2022/03/28 04:42:34;;;;;;;19.70;11.30;;;;;;;;;;5032481;28;20281;-79
2022/03/28 04:45:01;;;;;;;14.37;10.90;;;;;;;;;;5019796;28;20221;-79
2022/03/28 04:47:29;;;;;;;16.17;10.97;;;;;;;;;;5013157;28;20191;-79
2022/03/28 04:49:58;;;;;;;16.20;10.83;;;;;;;;;;5013737;28;20281;-79
2022/03/28 04:52:25;;;;;;;14.33;10.37;;;;;;;;;;5013876;28;20222;-79
2022/03/28 04:54:52;;;;;;;19.57;11.50;;;;;;;;;;5014715;28;20286;-78
2022/03/28 04:57:19;;;;;;;19.63;11.07;;;;;;;;;;5018386;28;20218;-77
2022/03/28 04:59:47;;;;;;;16.77;10.93;;;;;;;;;;5025815;28;20190;-78
2022/03/28 05:02:14;;;;;;;15.00;10.80;;;;;;;;;;5016020;28;20205;-84
2022/03/28 05:04:42;;;;;;;20.00;11.57;;;;;;;;;;5020573;28;20249;-79
2022/03/28 05:07:10;;;;;;;19.77;11.83;;;;;;;;;;5019559;28;20266;-78
2022/03/28 05:09:37;;;;;;;19.23;12.03;;;;;;;;;;5012666;28;20305;-79
2022/03/28 05:12:05;;;;;;;17.90;11.33;;;;;;;;;;5012643;28;20249;-78
2022/03/28 05:14:33;;;;;;;16.13;11.33;;;;;;;;;;5012903;28;20280;-79
2022/03/28 05:17:00;;;;;;;16.53;11.63;;;;;;;;;;5016436;28;20195;-79
2022/03/28 05:19:27;;;;;;;17.67;11.27;;;;;;;;;;5016595;28;20414;-81
2022/03/28 05:21:54;;;;;;;17.60;11.93;;;;;;;;;;5019758;28;20241;-80
2022/03/28 05:24:23;;;;;;;21.37;11.83;;;;;;;;;;5011726;28;20198;-77
2022/03/28 05:26:50;;;;;;;16.80;11.43;;;;;;;;;;5018993;28;20364;-76
2022/03/28 05:29:18;;;;;;;18.60;11.10;;;;;;;;;;5006275;28;20251;-76
2022/03/28 05:31:47;;;;;;;23.83;11.87;;;;;;;;;;5010130;28;20653;-79
2022/03/28 05:34:15;;;;;;;21.40;11.40;;;;;;;;;;5001394;28;20199;-76
2022/03/28 05:36:42;;;;;;;17.13;10.70;;;;;;;;;;4998106;28;20209;-73
2022/03/28 05:39:10;;;;;;;16.70;11.17;;;;;;;;;;5001929;28;20253;-79
2022/03/28 05:41:38;;;;;;;16.33;11.13;;;;;;;;;;5012967;28;20333;-78
2022/03/28 05:44:06;;;;;;;16.27;11.83;;;;;;;;;;5007141;28;20203;-79
2022/03/28 05:46:33;;;;;;;20.30;11.67;;;;;;;;;;5012370;28;20230;-78
2022/03/28 05:49:01;;;;;;;14.30;11.00;;;;;;;;;;5020415;28;20258;-77
2022/03/28 05:51:28;;;;;;;15.33;11.50;;;;;;;;;;5011335;28;20234;-78
2022/03/28 05:53:55;;;;;;;15.67;11.17;;;;;;;;;;5004698;28;20219;-79
2022/03/28 05:56:22;;;;;;;16.03;11.13;;;;;;;;;;5010361;28;20205;-78
2022/03/28 05:58:51;;;;;;;16.60;11.50;;;;;;;;;;5011643;28;20222;-78
2022/03/28 06:01:18;;;;;;;19.63;11.70;;;;;;;;;;4997458;28;20235;-80
2022/03/28 06:03:46;;;;;;;18.50;11.33;;;;;;;;;;4996428;28;20217;-77
2022/03/28 06:06:13;;;;;;;19.40;11.67;;;;;;;;;;4995601;28;20226;-78
2022/03/28 06:08:40;;;;;;;20.30;11.43;;;;;;;;;;4995602;28;20231;-78
2022/03/28 06:11:07;;;;;;;19.33;11.10;;;;;;;;;;5000013;28;20221;-77
2022/03/28 06:13:35;;;;;;;19.00;11.17;;;;;;;;;;5014826;28;20210;-77
2022/03/28 06:16:04;;;;;;;19.27;11.47;;;;;;;;;;5015490;28;20237;-77
2022/03/28 06:18:31;;;;;;;19.83;10.83;;;;;;;;;;5004745;28;20318;-79
2022/03/28 06:20:58;;;;;;;18.07;11.07;;;;;;;;;;4996037;28;20290;-77
2022/03/28 06:23:26;;;;;;;19.27;10.20;;;;;;;;;;5000226;28;20198;-76
2022/03/28 06:25:53;;;;;;;23.87;12.07;;;;;;;;;;5014901;28;20206;-76
2022/03/28 06:28:21;;;;;;;16.07;11.20;;;;;;;;;;5014737;28;20292;-77
2022/03/28 06:30:48;;;;;;;19.17;10.67;;;;;;;;;;5014727;28;20241;-79
2022/03/28 06:33:16;;;;;;;16.67;10.77;;;;;;;;;;5004558;28;20764;-77
2022/03/28 06:35:45;;;;;;;13.53;10.33;;;;;;;;;;4995680;28;20203;-76
2022/03/28 06:38:12;;;;;;;18.37;9.83;;;;;;;;;;4999146;28;20226;-76
2022/03/28 06:40:39;;;;;;;19.30;10.30;;;;;;;;;;5014303;28;20214;-76
2022/03/28 06:43:07;;;;;;;14.47;10.60;;;;;;;;;;5014167;28;20241;-76
2022/03/28 06:45:36;;;;;;;15.70;10.87;;;;;;;;;;4998409;28;20261;-75
2022/03/28 06:48:03;;;;;;;12.80;9.37;;;;;;;;;;4995237;28;20238;-78
2022/03/28 06:50:34;;;;;;;15.60;10.40;;;;;;;;;;4995602;28;20207;-76
2022/03/28 06:53:01;;;;;;;20.30;11.00;;;;;;;;;;4995695;28;20231;-76
2022/03/28 06:55:29;;;;;;;14.80;10.73;;;;;;;;;;4999387;28;20214;-78
2022/03/28 06:57:56;;;;;;;16.77;10.60;;;;;;;;;;5014313;28;20230;-78
2022/03/28 07:00:24;;;;;;;16.23;11.00;;;;;;;;;;4998444;28;20211;-76
2022/03/28 07:02:51;;;;;;;16.83;11.50;;;;;;;;;;4996924;28;20206;-76
2022/03/28 07:05:18;;;;;;;17.57;11.97;;;;;;;;;;4996346;28;20290;-75
2022/03/28 07:07:48;;;;;;;18.33;11.93;;;;;;;;;;5000761;28;20250;-79
2022/03/28 07:10:16;;;;;;;18.13;11.67;;;;;;;;;;5002151;28;20215;-80
2022/03/28 07:12:44;;;;;;;18.00;12.20;;;;;;;;;;5012837;28;20250;-78
2022/03/28 07:15:12;;;;;;;17.37;11.73;;;;;;;;;;5024385;28;20225;-79
2022/03/28 07:17:46;;;;;;;15.90;10.87;;;;;;;;;;5021379;28;20230;-78
2022/03/28 07:20:14;;;;;;;17.77;12.50;;;;;;;;;;5016368;28;20207;-78
2022/03/28 07:22:41;;;;;;;17.33;11.63;;;;;;;;;;5015210;28;20281;-78
2022/03/28 07:25:10;;;;;;;18.73;12.33;;;;;;;;;;5014198;28;20229;-78
2022/03/28 07:27:38;;;;;;;17.87;11.87;;;;;;;;;;5013773;28;20203;-79
2022/03/28 07:30:07;;;;;;;16.80;12.40;;;;;;;;;;5014218;28;20210;-78
2022/03/28 07:32:34;;;;;;;14.10;11.33;;;;;;;;;;5013595;28;20246;-78
2022/03/28 07:35:01;;;;;;;13.43;10.73;;;;;;;;;;5014286;28;20213;-78
2022/03/28 07:37:28;;;;;;;16.07;10.90;;;;;;;;;;5013102;28;20215;-78
2022/03/28 07:39:56;;;;;;;14.60;11.40;;;;;;;;;;5013784;28;20206;-78
2022/03/28 07:42:25;;;;;;;15.10;10.90;;;;;;;;;;5015375;28;20223;-78
2022/03/28 07:44:55;;;;;;;13.30;11.10;;;;;;;;;;5015812;28;20257;-78
2022/03/28 07:47:23;;;;;;;12.07;10.53;;;;;;;;;;5015927;28;20215;-78
2022/03/28 07:49:52;;;;;;;14.73;10.70;;;;;;;;;;5015536;28;20216;-78
2022/03/28 07:52:19;;;;;;;15.87;11.67;;;;;;;;;;5015154;28;20227;-79
2022/03/28 07:54:47;;;;;;;13.90;10.87;;;;;;;;;;5015284;28;20305;-78
2022/03/28 07:57:16;;;;;;;17.87;11.87;;;;;;;;;;4998584;28;20203;-78
2022/03/28 07:59:47;;;;;;;15.23;11.53;;;;;;;;;;4996357;28;20227;-78
2022/03/28 08:02:17;;;;;;;14.33;10.43;;;;;;;;;;4994372;28;20207;-78
2022/03/28 08:04:45;;;;;;;14.07;10.83;;;;;;;;;;4994844;28;20210;-77
2022/03/28 08:07:12;;;;;;;15.17;11.17;;;;;;;;;;4995434;28;20211;-78
2022/03/28 08:09:40;;;;;;;15.47;10.70;;;;;;;;;;4994240;28;20254;-78
2022/03/28 08:12:09;;;;;;;13.13;10.83;;;;;;;;;;4998996;28;20696;-78
2022/03/28 08:14:36;;;;;;;13.70;10.80;;;;;;;;;;5000767;28;20207;-78
2022/03/28 08:17:05;;;;;;;14.87;10.77;;;;;;;;;;5006345;28;20206;-78
2022/03/28 08:19:32;;;;;;;12.27;10.73;;;;;;;;;;5013762;28;20232;-78
2022/03/28 08:22:00;;;;;;;18.30;11.87;;;;;;;;;;5012619;28;20198;-77
2022/03/28 08:24:27;;;;;;;14.63;10.73;;;;;;;;;;5012706;28;20230;-78
2022/03/28 08:26:54;;;;;;;15.00;11.00;;;;;;;;;;5012208;28;20206;-78
2022/03/28 08:29:21;;;;;;;17.83;11.70;;;;;;;;;;5012077;28;20272;-78
2022/03/28 08:31:50;;;;;;;17.23;11.67;;;;;;;;;;5012113;28;20211;-78
2022/03/28 08:34:20;;;;;;;17.33;10.97;;;;;;;;;;5007398;28;20318;-78
2022/03/28 08:36:47;;;;;;;16.40;11.10;;;;;;;;;;4993633;28;20285;-79
2022/03/28 08:39:14;;;;;;;15.33;10.90;;;;;;;;;;4993687;28;20290;-78
2022/03/28 08:41:42;;;;;;;15.30;10.97;;;;;;;;;;5004982;28;20294;-78
2022/03/28 08:44:10;;;;;;;16.87;11.37;;;;;;;;;;5012381;28;20217;-79
2022/03/28 08:46:40;;;;;;;16.27;11.80;;;;;;;;;;5019418;28;20274;-77
2022/03/28 08:49:08;;;;;;;15.30;11.33;;;;;;;;;;5020166;28;20325;-78
2022/03/28 08:51:36;;;;;;;17.10;10.80;;;;;;;;;;5011189;28;20207;-78
2022/03/28 08:54:04;;;;;;;17.23;11.90;;;;;;;;;;5003443;28;20226;-78
2022/03/28 08:56:31;;;;;;;14.40;11.10;;;;;;;;;;5002283;28;20252;-78
2022/03/28 08:58:58;;;;;;;14.77;11.33;;;;;;;;;;5007100;28;20250;-79
2022/03/28 09:01:26;;;;;;;16.10;11.80;;;;;;;;;;5011937;28;20229;-78
2022/03/28 09:03:53;;;;;;;17.00;11.83;;;;;;;;;;5011900;28;20222;-79
2022/03/28 09:06:30;;;;;;;14.00;10.77;;;;;;;;;;5011492;28;20210;-78
2022/03/28 09:09:10;;;;;;;18.60;12.43;;;;;;;;;;5011335;28;20227;-77
2022/03/28 09:11:37;;;;;;;15.17;11.33;;;;;;;;;;5011812;28;20289;-78
2022/03/28 09:14:04;;;;;;;15.17;11.23;;;;;;;;;;5011773;28;20333;-79
2022/03/28 09:16:34;;;;;;;14.23;11.37;;;;;;;;;;5011836;28;20257;-78
2022/03/28 09:19:02;;;;;;;14.27;11.60;;;;;;;;;;5011713;28;20257;-78
2022/03/28 09:21:29;;;;;;;15.60;11.87;;;;;;;;;;5005172;28;20241;-78
2022/03/28 09:23:57;;;;;;;17.13;12.37;;;;;;;;;;5004215;28;20203;-78
2022/03/28 09:26:26;;;;;;;18.87;12.73;;;;;;;;;;4991217;28;20290;-78
2022/03/28 09:28:56;;;;;;;18.17;13.13;;;;;;;;;;5002399;28;20254;-79
2022/03/28 09:31:25;;;;;;;17.07;12.80;;;;;;;;;;4991547;28;20207;-79
2022/03/28 09:33:54;;;;;;;19.70;12.73;;;;;;;;;;4991396;28;20227;-78
2022/03/28 09:36:34;;;;;;;14.95;11.45;;;;;;;;;;5003933;28;20238;-80
2022/03/28 09:39:02;;;;;;;16.13;12.40;;;;;;;;;;5013602;28;20324;-78
2022/03/28 09:41:31;;;;;;;17.50;12.63;;;;;;;;;;5007720;28;20199;-79
2022/03/28 09:43:59;;;;;;;18.43;13.03;;;;;;;;;;5006717;28;20285;-78
2022/03/28 09:46:27;;;;;;;19.45;12.60;;;;;;;;;;5014228;28;20293;-79
2022/03/28 09:48:55;;;;;;;16.38;11.98;;;;;;;;;;5040688;22;20230;-74
2022/03/28 09:51:23;;;;;;;14.50;11.50;;;;;;;;;;5048680;28;20207;-74
2022/03/28 09:53:50;;;;;;;16.23;12.23;;;;;;;;;;5049442;28;20256;-74
2022/03/28 09:56:18;;;;;;;17.33;12.65;;;;;;;;;;5050753;28;20204;-75
2022/03/28 09:58:47;;;;;;;20.60;13.82;;;;;;;;;;5050193;28;20232;-75
2022/03/28 10:01:19;;;;;;;19.48;13.73;;;;;;;;;;5049564;28;20204;-75
2022/03/28 10:03:47;;;;;;;18.88;13.50;;;;;;;;;;5048855;28;20194;-74
2022/03/28 10:06:14;;;;;;;17.48;12.43;;;;;;;;;;5048702;28;20248;-75
2022/03/28 10:08:43;;;;;;;17.70;12.85;;;;;;;;;;5050498;28;20257;-74
2022/03/28 10:11:11;;;;;;;17.50;12.80;;;;;;;;;;5045115;28;20213;-75
2022/03/28 10:13:38;;;;;;;18.10;12.88;;;;;;;;;;5045199;28;20247;-74
2022/03/28 10:16:08;;;;;;;18.90;13.60;;;;;;;;;;5048804;28;20296;-74
2022/03/28 10:18:35;;;;;;;19.02;13.60;;;;;;;;;;5049014;28;20205;-74
2022/03/28 10:21:05;;;;;;;19.23;13.48;;;;;;;;;;5044521;28;20205;-75
2022/03/28 10:23:34;;;;;;;15.15;12.73;;;;;;;;;;5050645;28;20291;-74
2022/03/28 10:26:01;;;;;;;17.35;13.50;;;;;;;;;;5050455;28;20209;-74
2022/03/28 10:28:29;;;;;;;17.55;12.73;;;;;;;;;;5049327;28;20287;-74
2022/03/28 10:31:14;;;;;;;17.38;13.25;;;;;;;;;;5050115;28;20212;-74
2022/03/28 10:33:51;;;;;;;16.77;12.55;;;;;;;;;;5049667;28;20232;-74
2022/03/28 12:31:41;;;;;;;15.70;12.18;;;;;;;;;;6109108;22;20253;-75
2022/03/28 12:34:10;;;;;;;15.52;11.75;;;;;;;;;;5022933;28;20309;-77
2022/03/28 12:36:37;;;;;;;16.25;12.73;;;;;;;;;;5031491;28;20217;-77
2022/03/28 12:39:06;;;;;;;14.63;11.52;;;;;;;;;;5031922;28;20213;-76
2022/03/28 12:41:41;;;;;;;16.05;12.35;;;;;;;;;;5031562;28;20229;-76
2022/03/28 12:44:13;;;;;;;15.63;11.60;;;;;;;;;;5055329;22;20233;-78
2022/03/28 12:46:41;;;;;;;14.18;11.70;;;;;;;;;;5032918;28;20224;-78
2022/03/28 12:49:11;;;;;;;15.85;11.80;;;;;;;;;;5035560;28;20225;-80
2022/03/28 12:51:40;;;;;;;16.25;11.90;;;;;;;;;;5036375;28;20233;-80
2022/03/28 12:54:08;;;;;;;16.98;12.55;;;;;;;;;;5035624;28;20229;-81
2022/03/28 12:56:45;;;;;;;14.63;11.88;;;;;;;;;;5034617;28;20206;-79
2022/03/28 12:59:14;;;;;;;15.77;11.50;;;;;;;;;;5035672;28;20292;-80
2022/03/28 13:01:41;;;;;;;15.95;12.63;;;;;;;;;;5034486;28;20250;-79
2022/03/28 13:04:11;;;;;;;13.43;10.85;;;;;;;;;;5035024;28;20221;-80
2022/03/28 13:06:42;;;;;;;15.48;11.32;;;;;;;;;;5034738;28;20260;-79
2022/03/28 13:09:09;;;;;;;16.13;12.25;;;;;;;;;;5036194;28;20222;-79
2022/03/28 13:11:37;;;;;;;16.35;12.50;;;;;;;;;;5036022;28;20205;-79
2022/03/28 13:14:06;;;;;;;14.85;12.43;;;;;;;;;;5036374;28;20237;-79
2022/03/28 13:16:34;;;;;;;15.82;11.57;;;;;;;;;;5036649;28;20218;-79
2022/03/28 13:19:02;;;;;;;14.52;11.65;;;;;;;;;;5037524;28;20232;-79
2022/03/28 13:21:32;;;;;;;13.35;11.13;;;;;;;;;;5038473;28;20213;-80
2022/03/28 13:24:03;;;;;;;15.70;11.88;;;;;;;;;;5037312;28;20245;-79
2022/03/28 13:26:37;;;;;;;17.10;11.45;;;;;;;;;;5035168;28;20198;-79
2022/03/28 13:29:15;;;;;;;14.55;11.40;;;;;;;;;;5036315;28;20206;-80
2022/03/28 13:31:42;;;;;;;14.82;10.90;;;;;;;;;;5036057;28;20221;-79
2022/03/28 13:34:10;;;;;;;12.73;11.05;;;;;;;;;;5037310;28;20757;-80
2022/03/28 13:36:38;;;;;;;14.65;11.32;;;;;;;;;;5036097;28;20265;-79
2022/03/28 13:39:06;;;;;;;14.35;11.07;;;;;;;;;;5035899;28;20263;-79
2022/03/28 13:41:36;;;;;;;12.70;10.40;;;;;;;;;;5037453;28;20213;-84
2022/03/28 13:44:04;;;;;;;13.90;10.23;;;;;;;;;;5033913;28;20308;-79
2022/03/28 13:46:31;;;;;;;15.77;10.88;;;;;;;;;;5030797;28;20209;-79
2022/03/28 13:48:58;;;;;;;12.35;10.23;;;;;;;;;;5036328;28;20213;-80
2022/03/28 13:51:29;;;;;;;13.15;10.38;;;;;;;;;;5032989;28;20256;-80
2022/03/28 13:53:58;;;;;;;15.55;11.00;;;;;;;;;;5034682;28;20213;-79
2022/03/28 13:56:27;;;;;;;14.40;9.77;;;;;;;;;;5036612;28;20207;-79
2022/03/28 13:58:54;;;;;;;15.00;10.18;;;;;;;;;;5032248;28;20259;-79
2022/03/28 14:01:27;;;;;;;14.13;10.15;;;;;;;;;;5035337;28;20205;-79
2022/03/28 14:03:55;;;;;;;14.02;11.30;;;;;;;;;;5035961;28;20273;-79
2022/03/28 14:06:22;;;;;;;13.88;10.93;;;;;;;;;;5036302;28;20209;-79
2022/03/28 14:08:53;;;;;;;14.30;11.10;;;;;;;;;;5037221;28;20217;-79
2022/03/28 14:11:22;;;;;;;13.77;10.50;;;;;;;;;;5036008;28;20209;-79
2022/03/28 14:13:50;;;;;;;12.32;10.32;;;;;;;;;;5029919;28;20226;-79
2022/03/28 14:16:19;;;;;;;14.20;9.93;;;;;;;;;;5031480;28;20218;-80
2022/03/28 14:18:47;;;;;;;11.77;10.18;;;;;;;;;;5036153;28;20237;-79
2022/03/28 14:21:18;;;;;;;13.13;10.45;;;;;;;;;;5030576;28;20205;-79
2022/03/28 14:23:46;;;;;;;11.10;9.60;;;;;;;;;;5036071;28;20205;-79
2022/03/28 14:26:16;;;;;;;13.00;10.32;;;;;;;;;;5037056;28;20260;-79
2022/03/28 14:28:46;;;;;;;11.07;9.95;;;;;;;;;;5036635;28;20232;-79
2022/03/28 14:31:16;;;;;;;11.90;10.10;;;;;;;;;;5037528;28;20205;-79
2022/03/28 14:33:43;;;;;;;11.13;10.02;;;;;;;;;;5038618;28;20218;-79
2022/03/28 14:36:11;;;;;;;10.60;9.50;;;;;;;;;;5037872;28;20251;-79
2022/03/28 14:38:41;;;;;;;14.35;10.10;;;;;;;;;;5038549;28;20206;-79
2022/03/28 14:41:10;;;;;;;11.43;10.32;;;;;;;;;;5037713;28;20226;-79
2022/03/28 14:43:42;;;;;;;15.20;10.90;;;;;;;;;;5038192;28;20210;-82
2022/03/28 14:49:00;;;;;;;12.40;10.45;;;;;;;;;;5032888;28;20331;-79
2022/03/28 14:51:28;;;;;;;11.90;9.82;;;;;;;;;;5039116;28;20221;-79
2022/03/28 14:53:55;;;;;;;10.77;9.68;;;;;;;;;;5040006;28;20268;-80
2022/03/28 14:56:23;;;;;;;11.45;10.23;;;;;;;;;;5039265;28;20213;-79
2022/03/28 14:58:50;;;;;;;10.95;9.75;;;;;;;;;;5036329;28;20212;-79
2022/03/28 15:01:25;;;;;;;11.05;9.70;;;;;;;;;;5038613;28;20241;-79
2022/03/28 15:03:57;;;;;;;11.63;9.48;;;;;;;;;;5037507;28;20198;-79
2022/03/28 15:06:25;;;;;;;10.32;9.30;;;;;;;;;;5038679;28;20280;-80
2022/03/28 15:08:53;;;;;;;10.50;9.45;;;;;;;;;;5032478;28;20230;-80
2022/03/28 15:11:21;;;;;;;10.60;9.50;;;;;;;;;;5040675;28;20204;-80
2022/03/28 15:13:48;;;;;;;10.43;9.15;;;;;;;;;;5043990;28;20222;-80
2022/03/28 15:16:16;;;;;;;10.18;9.23;;;;;;;;;;5039484;28;20217;-81
2022/03/28 15:18:48;;;;;;;10.48;9.38;;;;;;;;;;5032692;28;20210;-79
2022/03/28 15:21:16;;;;;;;10.25;8.85;;;;;;;;;;5029947;28;20214;-79
2022/03/28 15:23:46;;;;;;;12.07;9.50;;;;;;;;;;5025535;28;20198;-79
2022/03/28 15:26:13;;;;;;;13.50;11.73;;;;;;;;;;5032372;28;20209;-80
2022/03/28 15:28:41;;;;;;;13.20;11.80;;;;;;;;;;5030544;28;20290;-79
2022/03/28 15:31:25;;;;;;;12.60;10.48;;;;;;;;;;5029167;28;20217;-79
2022/03/28 15:34:00;;;;;;;10.43;9.40;;;;;;;;;;5032261;28;20241;-79
2022/03/28 15:36:28;;;;;;;10.52;8.88;;;;;;;;;;5037266;28;20232;-79
2022/03/28 15:38:56;;;;;;;11.68;8.35;;;;;;;;;;5039074;28;20247;-80
2022/03/28 15:41:24;;;;;;;12.35;9.05;;;;;;;;;;5036728;28;20198;-79
2022/03/28 15:43:54;;;;;;;9.95;8.95;;;;;;;;;;5036104;28;20209;-80
2022/03/28 15:46:24;;;;;;;10.55;8.90;;;;;;;;;;5039118;28;20285;-80
2022/03/28 15:48:56;;;;;;;11.18;8.80;;;;;;;;;;5037336;28;20198;-79
2022/03/28 15:51:30;;;;;;;10.68;8.52;;;;;;;;;;5032756;28;20202;-82
2022/03/28 15:54:02;;;;;;;10.68;8.88;;;;;;;;;;5032138;28;20253;-81
2022/03/28 15:56:29;;;;;;;10.45;8.70;;;;;;;;;;5040755;28;20212;-82
2022/03/28 15:59:02;;;;;;;12.23;8.70;;;;;;;;;;5038097;28;20205;-83
2022/03/28 16:01:40;;;;;;;10.73;8.80;;;;;;;;;;5043605;28;20212;-80
2022/03/28 16:04:15;;;;;;;9.65;8.57;;;;;;;;;;5037490;28;20221;-82
2022/03/28 16:06:42;;;;;;;10.40;9.35;;;;;;;;;;5030462;28;20288;-80
2022/03/28 16:09:11;;;;;;;10.77;8.60;;;;;;;;;;5032145;28;20208;-80
2022/03/28 16:11:40;;;;;;;10.13;8.40;;;;;;;;;;5033206;28;20210;-80
2022/03/28 16:14:11;;;;;;;10.20;8.40;;;;;;;;;;5035590;28;20683;-82
2022/03/28 16:16:39;;;;;;;9.20;8.30;;;;;;;;;;5029391;28;20206;-83
2022/03/28 16:19:14;;;;;;;10.82;9.07;;;;;;;;;;5029260;28;20214;-81
2022/03/28 16:21:43;;;;;;;9.27;8.25;;;;;;;;;;5030399;28;20210;-86
2022/03/28 16:24:15;;;;;;;9.20;8.18;;;;;;;;;;5033881;28;20264;-84
2022/03/28 16:26:44;;;;;;;9.13;8.23;;;;;;;;;;5027720;28;20304;-85
2022/03/28 16:29:13;;;;;;;9.60;8.00;;;;;;;;;;5028431;28;20218;-78